Time;durP1;ratioP1;P1;durP2;ratioP2;P2;SDS_P1;SDS_P2;PMS_P1;PMS_P2;Temp;Humidity;BMP_temperature;BMP_pressure;BME280_temperature;BME280_humidity;BME280_pressure;Samples;Min_cycle;Max_cycle;Signal;HPM_P1;HPM_P2
2022/04/30 00:00:36;;;;;;;16.23;3.63;;;;;;;17.58;70.85;100850.09;2100257;28;20164;-78
2022/04/30 00:01:57;;;;;;;13.90;3.30;;;;;;;17.58;70.80;100850.09;2093970;28;20049;-78
2022/04/30 00:03:24;;;;;;;18.20;3.90;;;;;;;17.59;70.84;100846.53;2094968;28;20045;-78
2022/04/30 00:04:48;;;;;;;11.75;3.83;;;;;;;17.58;70.76;100845.66;2089272;28;20479;-78
2022/04/30 00:06:09;;;;;;;15.05;4.22;;;;;;;17.56;70.70;100842.09;2085076;28;20049;-78
2022/04/30 00:07:32;;;;;;;9.60;3.28;;;;;;;17.53;70.64;100848.34;2088321;28;20044;-78
2022/04/30 00:08:54;;;;;;;13.50;3.70;;;;;;;17.52;70.69;100840.38;2094409;28;20451;-78
2022/04/30 00:10:17;;;;;;;20.95;4.25;;;;;;;17.50;70.70;100835.06;2095489;28;20048;-78
2022/04/30 00:11:39;;;;;;;12.13;3.33;;;;;;;17.47;70.84;100831.53;2094930;28;20048;-77
2022/04/30 00:13:02;;;;;;;17.35;3.63;;;;;;;17.45;70.82;100831.56;2100496;28;20063;-78
2022/04/30 00:14:27;;;;;;;17.45;4.57;;;;;;;17.46;70.86;100835.09;2101303;28;20046;-78
2022/04/30 00:15:50;;;;;;;13.45;3.05;;;;;;;17.44;70.90;100842.25;2107333;28;20063;-78
2022/04/30 00:17:11;;;;;;;14.48;3.88;;;;;;;17.41;70.95;100835.16;2103704;28;20067;-78
2022/04/30 00:18:34;;;;;;;21.05;4.90;;;;;;;17.40;70.95;100841.38;2093493;28;20043;-78
2022/04/30 00:19:55;;;;;;;12.68;3.30;;;;;;;17.39;70.90;100836.09;2091240;28;20052;-78
2022/04/30 00:21:18;;;;;;;19.15;4.10;;;;;;;17.38;70.88;100845.00;2091863;28;20048;-78
2022/04/30 00:22:39;;;;;;;16.45;3.35;;;;;;;17.35;70.96;100837.00;2091645;28;20416;-78
2022/04/30 00:24:02;;;;;;;11.27;3.50;;;;;;;17.34;71.08;100841.44;2099459;28;20056;-79
2022/04/30 00:25:25;;;;;;;13.55;3.53;;;;;;;17.34;71.07;100840.56;2084541;28;20389;-78
2022/04/30 00:26:47;;;;;;;16.85;3.42;;;;;;;17.31;71.12;100845.94;2095248;28;20057;-78
2022/04/30 00:28:09;;;;;;;19.80;3.53;;;;;;;17.30;71.18;100833.50;2090661;28;20053;-79
2022/04/30 00:29:35;;;;;;;16.35;4.10;;;;;;;17.29;71.25;100840.63;2092027;28;20175;-78
2022/04/30 00:30:56;;;;;;;16.70;3.38;;;;;;;17.26;71.25;100840.66;2092179;28;20045;-79
2022/04/30 00:32:21;;;;;;;17.38;3.50;;;;;;;17.25;71.18;100838.91;2085544;28;20053;-79
2022/04/30 00:33:47;;;;;;;9.98;3.10;;;;;;;17.25;71.29;100833.56;2100496;28;20404;-78
2022/04/30 00:35:11;;;;;;;15.02;4.53;;;;;;;17.26;71.42;100838.00;2086967;28;20057;-78
2022/04/30 00:36:33;;;;;;;12.93;3.50;;;;;;;17.28;71.42;100840.63;2094636;28;20040;-78
2022/04/30 00:37:55;;;;;;;13.85;3.25;;;;;;;17.28;71.40;100838.84;2086485;28;20045;-78
2022/04/30 00:39:17;;;;;;;14.48;3.20;;;;;;;17.28;71.40;100838.84;2092105;28;20048;-78
2022/04/30 00:40:40;;;;;;;15.90;3.40;;;;;;;17.28;71.41;100833.50;2096294;28;20044;-78
2022/04/30 00:42:03;;;;;;;14.18;3.30;;;;;;;17.30;71.43;100834.38;2093386;28;20078;-78
2022/04/30 00:43:24;;;;;;;19.17;3.50;;;;;;;17.31;71.39;100835.28;2100752;28;20059;-79
2022/04/30 00:44:49;;;;;;;17.70;4.78;;;;;;;17.32;71.35;100829.94;2088849;28;20083;-78
2022/04/30 00:46:13;;;;;;;15.35;3.55;;;;;;;17.31;71.24;100836.16;2092216;28;20581;-78
2022/04/30 00:47:36;;;;;;;13.40;3.67;;;;;;;17.30;71.36;100837.06;2103466;28;20071;-79
2022/04/30 00:49:01;;;;;;;14.65;3.58;;;;;;;17.32;71.35;100839.72;2100095;28;20413;-78
2022/04/30 00:50:28;;;;;;;17.63;3.80;;;;;;;17.34;71.26;100844.13;2103172;28;20479;-79
2022/04/30 00:51:52;;;;;;;23.33;3.65;;;;;;;17.31;71.29;100830.81;2101946;28;20044;-78
2022/04/30 00:53:17;;;;;;;14.02;3.42;;;;;;;17.30;71.33;100850.41;2094841;28;20037;-78
2022/04/30 00:54:42;;;;;;;13.63;2.95;;;;;;;17.29;71.26;100848.63;2092732;28;20110;-78
2022/04/30 00:56:07;;;;;;;12.65;3.95;;;;;;;17.29;71.21;100840.63;2092611;28;20573;-78
2022/04/30 00:57:32;;;;;;;12.68;3.38;;;;;;;17.31;71.13;100845.94;2090450;28;20045;-78
2022/04/30 00:58:55;;;;;;;12.55;3.55;;;;;;;17.30;71.09;100845.06;2098489;28;20142;-79
2022/04/30 01:00:20;;;;;;;15.82;4.00;;;;;;;17.32;70.97;100848.59;2105354;28;20059;-79
2022/04/30 01:01:59;;;;;;;10.80;3.83;;;;;;;17.32;70.97;100837.06;2097317;28;20526;-78
2022/04/30 01:03:41;;;;;;;19.15;2.80;;;;;;;17.29;70.96;100839.75;2104101;28;20058;-78
2022/04/30 01:05:04;;;;;;;15.10;3.53;;;;;;;17.25;70.88;100828.22;2101800;28;20496;-78
2022/04/30 01:06:37;;;;;;;12.07;2.83;;;;;;;17.25;70.83;100833.56;2094556;28;20048;-78
2022/04/30 01:08:00;;;;;;;11.20;3.92;;;;;;;17.21;70.84;100831.81;2104235;28;20087;-78
2022/04/30 01:09:25;;;;;;;9.40;2.90;;;;;;;17.23;70.65;100837.13;2097068;28;20041;-79
2022/04/30 01:10:47;;;;;;;12.43;3.00;;;;;;;17.19;70.71;100836.31;2099369;28;20044;-78
2022/04/30 01:12:11;;;;;;;17.70;3.72;;;;;;;17.18;70.66;100831.84;2093747;28;20044;-77
2022/04/30 01:13:35;;;;;;;13.70;3.30;;;;;;;17.19;70.64;100830.06;2084078;28;20409;-78
2022/04/30 01:14:58;;;;;;;22.17;4.53;;;;;;;17.18;70.41;100829.19;2098079;28;20058;-78
2022/04/30 01:16:21;;;;;;;11.93;3.42;;;;;;;17.16;70.38;100830.09;2097678;28;20043;-78
2022/04/30 01:17:44;;;;;;;11.15;3.03;;;;;;;17.13;70.21;100839.03;2092581;28;20052;-78
2022/04/30 01:19:08;;;;;;;18.50;3.72;;;;;;;17.12;70.10;100840.81;2096466;28;20069;-78
2022/04/30 01:20:34;;;;;;;10.98;2.92;;;;;;;17.12;70.12;100850.59;2105289;28;20509;-79
2022/04/30 01:21:57;;;;;;;9.40;3.33;;;;;;;17.10;69.89;100847.03;2094927;28;20081;-78
2022/04/30 01:23:23;;;;;;;10.75;2.88;;;;;;;17.09;69.90;100846.16;2091543;28;20083;-79
2022/04/30 01:24:46;;;;;;;15.70;3.22;;;;;;;17.08;69.78;100846.16;2090409;28;20048;-79
2022/04/30 01:26:09;;;;;;;15.10;4.22;;;;;;;17.08;69.70;100844.38;2097191;28;20404;-78
2022/04/30 01:27:32;;;;;;;16.98;2.92;;;;;;;17.09;69.60;100851.50;2102687;28;20036;-79
2022/04/30 01:28:55;;;;;;;11.85;3.05;;;;;;;17.07;69.53;100849.72;2103090;28;20077;-78
2022/04/30 01:30:19;;;;;;;14.90;3.25;;;;;;;17.05;69.40;100843.53;2096278;28;20373;-77
2022/04/30 01:38:40;;;;;;;10.02;2.65;;;;;;;16.94;69.24;100843.63;2096646;28;20194;-78
2022/04/30 01:40:04;;;;;;;17.73;3.55;;;;;;;16.93;69.22;100846.34;2107300;28;20072;-79
2022/04/30 01:41:26;;;;;;;9.85;3.00;;;;;;;16.93;69.18;100844.56;2096230;28;20967;-78
2022/04/30 01:42:49;;;;;;;10.85;2.80;;;;;;;16.95;69.10;100844.50;2089372;28;22112;-78
2022/04/30 01:44:13;;;;;;;11.35;2.90;;;;;;;16.96;68.94;100847.19;2092190;28;20040;-78
2022/04/30 01:45:36;;;;;;;14.55;3.60;;;;;;;16.99;68.83;100846.28;2094234;28;20135;-79
2022/04/30 01:46:58;;;;;;;9.77;3.03;;;;;;;17.00;68.75;100848.06;2092217;28;20076;-78
2022/04/30 01:48:20;;;;;;;;;;;;;;;17.01;68.75;100849.78;2104969;28;20040;-78
2022/04/30 01:49:43;;;;;;;11.02;3.03;;;;;;;16.97;68.70;100853.41;2096113;28;19920;-78
2022/04/30 01:51:06;;;;;;;15.38;3.70;;;;;;;16.96;68.55;100852.50;2097902;28;20036;-77
2022/04/30 01:52:27;;;;;;;11.40;2.75;;;;;;;16.98;68.58;100855.16;2093972;28;20053;-79
2022/04/30 01:53:52;;;;;;;7.57;2.53;;;;;;;17.00;68.58;100859.56;2095900;28;20052;-79
2022/04/30 01:55:16;;;;;;;16.67;3.35;;;;;;;16.97;68.56;100858.72;2100085;28;20145;-79
2022/04/30 01:56:38;;;;;;;12.63;3.67;;;;;;;16.98;68.51;100855.16;2087835;28;20039;-79
2022/04/30 01:58:07;;;;;;;12.43;2.80;;;;;;;16.99;68.52;100855.16;2092008;28;20052;-79
2022/04/30 01:59:28;;;;;;;15.63;3.20;;;;;;;17.01;68.56;100860.47;2101485;28;20040;-79
2022/04/30 02:00:52;;;;;;;11.07;2.72;;;;;;;17.01;68.37;100853.34;2089042;28;20056;-79
2022/04/30 02:02:14;;;;;;;17.55;3.33;;;;;;;17.03;68.42;100850.66;2102437;28;20101;-79
2022/04/30 02:03:37;;;;;;;11.27;3.03;;;;;;;17.06;68.45;100853.31;2097044;28;20557;-79
2022/04/30 02:05:03;;;;;;;10.38;3.67;;;;;;;17.08;68.40;100843.50;2104551;28;20040;-79
2022/04/30 02:06:25;;;;;;;13.77;3.03;;;;;;;17.10;68.34;100852.38;2095982;28;20448;-78
2022/04/30 02:07:50;;;;;;;16.65;4.00;;;;;;;17.13;68.33;100855.88;2084892;28;20568;-78
2022/04/30 02:09:14;;;;;;;7.65;3.08;;;;;;;17.14;68.43;100856.78;2100423;28;20511;-78
2022/04/30 02:10:39;;;;;;;14.32;3.10;;;;;;;17.14;68.35;100856.78;2095869;28;20047;-78
2022/04/30 02:12:01;;;;;;;13.32;3.15;;;;;;;17.14;68.49;100857.66;2104421;28;20048;-78
2022/04/30 02:13:28;;;;;;;14.00;4.20;;;;;;;17.18;68.36;100855.88;2102754;28;20052;-79
2022/04/30 02:14:52;;;;;;;10.75;2.80;;;;;;;17.21;68.34;100855.81;2102353;28;20046;-78
2022/04/30 02:16:15;;;;;;;14.38;3.55;;;;;;;17.21;68.32;100866.50;2092573;28;20095;-79
2022/04/30 02:17:40;;;;;;;10.52;2.90;;;;;;;17.21;68.34;100861.16;2094469;28;20041;-78
2022/04/30 02:19:04;;;;;;;21.38;3.85;;;;;;;17.23;68.29;100858.47;2101134;28;20496;-78
2022/04/30 02:20:29;;;;;;;9.95;3.30;;;;;;;17.24;68.27;100866.47;2087392;28;20060;-79
2022/04/30 02:21:52;;;;;;;12.30;3.28;;;;;;;17.24;68.19;100858.47;2096303;28;20471;-79
2022/04/30 02:23:15;;;;;;;11.10;2.70;;;;;;;17.25;68.11;100864.69;2096965;28;20055;-79
2022/04/30 02:24:38;;;;;;;17.63;3.08;;;;;;;17.26;68.11;100864.69;2107024;28;20138;-78
2022/04/30 02:26:04;;;;;;;12.57;3.58;;;;;;;17.24;68.04;100861.13;2106928;28;20044;-78
2022/04/30 02:27:26;;;;;;;14.70;3.78;;;;;;;17.23;68.05;100872.72;2095870;28;20139;-78
2022/04/30 02:28:48;;;;;;;11.88;3.55;;;;;;;17.21;68.02;100871.81;2097378;28;20051;-79
2022/04/30 02:30:12;;;;;;;11.57;3.05;;;;;;;17.21;68.15;100866.50;2106873;28;20437;-79
2022/04/30 02:31:35;;;;;;;15.85;3.40;;;;;;;17.19;68.08;100887.00;2103060;28;20466;-79
2022/04/30 02:33:00;;;;;;;10.95;2.92;;;;;;;17.16;68.03;100884.34;2095093;28;20044;-78
2022/04/30 02:34:22;;;;;;;15.30;3.47;;;;;;;17.12;68.16;100875.50;2097524;28;20060;-78
2022/04/30 02:35:46;;;;;;;15.07;3.38;;;;;;;17.14;68.26;100872.78;2095428;28;20072;-79
2022/04/30 02:37:07;;;;;;;9.63;3.08;;;;;;;17.13;68.26;100884.38;2101691;28;20040;-78
2022/04/30 02:38:29;;;;;;;13.75;3.22;;;;;;;17.11;68.32;100879.06;2098459;28;20045;-79
2022/04/30 02:39:52;;;;;;;10.27;2.90;;;;;;;17.14;68.26;100881.66;2092967;28;20056;-79
2022/04/30 02:41:15;;;;;;;11.40;3.30;;;;;;;17.11;68.52;100880.84;2097777;28;20148;-79
2022/04/30 02:42:37;;;;;;;15.80;3.90;;;;;;;17.13;68.45;100873.72;2088406;28;20160;-78
2022/04/30 02:44:00;;;;;;;8.88;1.98;;;;;;;17.13;68.54;100877.22;2091163;28;20138;-79
2022/04/30 02:45:22;;;;;;;21.55;4.55;;;;;;;17.17;68.59;100872.78;2092806;28;20484;-79
2022/04/30 02:46:45;;;;;;;12.35;2.83;;;;;;;17.18;68.59;100871.88;2088328;28;20064;-79
2022/04/30 02:48:09;;;;;;;14.00;4.22;;;;;;;17.20;68.61;100864.72;2095266;28;20381;-79
2022/04/30 02:49:33;;;;;;;17.52;4.78;;;;;;;17.22;68.74;100867.38;2101535;28;20044;-78
2022/04/30 02:51:00;;;;;;;12.13;3.28;;;;;;;17.23;68.90;100875.38;2097423;28;20056;-79
2022/04/30 02:52:22;;;;;;;14.82;3.20;;;;;;;17.23;69.01;100878.03;2091109;28;20037;-79
2022/04/30 02:53:44;;;;;;;;;;;;;;;17.24;69.03;100882.50;2095937;28;20132;-78
2022/04/30 02:55:12;;;;;;;12.13;3.22;;;;;;;17.23;69.10;100886.03;2084988;28;19948;-78
2022/04/30 02:56:35;;;;;;;21.27;3.65;;;;;;;17.24;69.21;100889.59;2084130;28;20059;-79
2022/04/30 02:59:55;;;;;;;9.98;2.92;;;;;;;17.26;69.58;100885.16;2106302;28;20373;-78
2022/04/30 03:01:43;;;;;;;14.30;3.78;;;;;;;17.28;69.65;100892.22;2086885;28;20445;-78
2022/04/30 03:03:24;;;;;;;18.20;4.00;;;;;;;17.29;69.79;100896.66;2096264;28;20036;-79
2022/04/30 03:04:45;;;;;;;11.48;3.10;;;;;;;17.30;69.83;100897.53;2085428;28;20037;-79
2022/04/30 03:06:09;;;;;;;12.32;3.40;;;;;;;17.31;69.94;100888.66;2097698;28;20062;-79
2022/04/30 03:07:31;;;;;;;13.43;3.10;;;;;;;17.30;70.07;100887.75;2105038;28;20048;-79
2022/04/30 03:08:54;;;;;;;10.20;3.40;;;;;;;17.31;70.23;100891.31;2103685;28;20135;-79
2022/04/30 03:10:17;;;;;;;9.80;3.42;;;;;;;17.33;70.32;100886.81;2095428;28;20079;-79
2022/04/30 03:11:40;;;;;;;10.40;3.30;;;;;;;17.34;70.40;100886.81;2101208;28;20097;-78
2022/04/30 03:13:01;;;;;;;9.90;2.85;;;;;;;17.34;70.38;100889.47;2097338;28;20419;-79
2022/04/30 03:14:24;;;;;;;12.02;3.83;;;;;;;17.35;70.45;100883.25;2087278;28;20059;-79
2022/04/30 03:15:47;;;;;;;12.43;3.38;;;;;;;17.39;70.42;100884.97;2095544;28;20032;-79
2022/04/30 03:22:11;;;;;;;7.45;3.35;;;;;;;17.43;70.22;100884.06;2106204;28;20040;-78
2022/04/30 03:23:35;;;;;;;15.60;3.47;;;;;;;17.44;70.12;100882.28;2091830;28;20644;-78
2022/04/30 03:24:58;;;;;;;10.23;3.00;;;;;;;17.45;70.09;100879.59;2093655;28;20480;-79
2022/04/30 03:26:26;;;;;;;9.48;3.90;;;;;;;17.47;69.90;100880.44;2095349;28;20526;-79
2022/04/30 03:27:49;;;;;;;8.77;3.03;;;;;;;17.48;69.80;100886.69;2095833;28;20052;-79
2022/04/30 03:29:11;;;;;;;9.93;3.25;;;;;;;17.49;69.73;100892.00;2101182;28;20047;-80
2022/04/30 03:30:33;;;;;;;9.82;2.60;;;;;;;17.52;69.59;100891.97;2094155;28;20032;-79
2022/04/30 03:31:56;;;;;;;12.27;3.90;;;;;;;17.54;69.34;100895.50;2084568;28;20504;-79
2022/04/30 03:33:18;;;;;;;11.65;2.75;;;;;;;17.58;69.16;100899.03;2096073;28;20527;-79
2022/04/30 03:34:41;;;;;;;8.45;2.75;;;;;;;17.61;68.95;100903.47;2099484;28;20055;-79
2022/04/30 03:36:05;;;;;;;9.65;3.40;;;;;;;17.63;68.83;100899.91;2094976;28;20105;-79
2022/04/30 03:37:27;;;;;;;9.60;2.97;;;;;;;17.67;68.55;100906.06;2101002;28;20050;-79
2022/04/30 03:38:48;;;;;;;10.63;3.72;;;;;;;17.73;68.11;100911.34;2105525;28;20140;-79
2022/04/30 03:40:13;;;;;;;13.05;2.85;;;;;;;17.75;67.89;100909.56;2094986;28;20045;-80
2022/04/30 03:41:36;;;;;;;6.70;2.95;;;;;;;17.80;67.71;100907.72;2093471;28;20135;-79
2022/04/30 03:42:59;;;;;;;13.38;3.15;;;;;;;17.81;67.42;100910.38;2099923;28;20055;-79
2022/04/30 03:44:23;;;;;;;8.05;3.13;;;;;;;17.85;67.48;100909.41;2110420;28;20092;-80
2022/04/30 03:45:44;;;;;;;6.10;2.95;;;;;;;17.89;67.06;100899.59;2106100;28;20139;-79
2022/04/30 03:47:07;;;;;;;11.90;3.28;;;;;;;17.92;66.98;100918.25;2084640;28;20135;-79
2022/04/30 03:48:29;;;;;;;12.88;3.10;;;;;;;17.97;66.75;100899.50;2085404;28;20045;-79
2022/04/30 03:49:51;;;;;;;8.98;2.90;;;;;;;18.02;66.50;100900.31;2099633;28;20051;-78
2022/04/30 03:51:13;;;;;;;6.13;1.88;;;;;;;18.05;66.24;100905.66;2094357;28;20060;-79
2022/04/30 03:52:35;;;;;;;8.18;3.00;;;;;;;18.10;66.08;100918.03;2101552;28;20040;-79
2022/04/30 03:53:57;;;;;;;8.18;2.95;;;;;;;18.15;65.96;100912.63;2091750;28;20207;-79
2022/04/30 03:55:20;;;;;;;7.72;2.95;;;;;;;18.17;65.76;100917.06;2100598;28;20048;-79
2022/04/30 03:56:44;;;;;;;6.88;2.65;;;;;;;18.21;65.68;100920.56;2105600;28;20044;-79
2022/04/30 03:58:05;;;;;;;9.98;2.75;;;;;;;18.25;65.66;100922.28;2095194;28;20044;-78
2022/04/30 03:59:28;;;;;;;14.07;3.33;;;;;;;18.27;65.62;100918.69;2100660;28;20048;-78
2022/04/30 04:00:49;;;;;;;9.93;2.90;;;;;;;18.32;65.61;100929.31;2092435;28;20052;-78
2022/04/30 04:02:12;;;;;;;13.80;3.17;;;;;;;18.37;65.59;100937.28;2092965;28;20140;-78
2022/04/30 04:03:36;;;;;;;8.50;3.78;;;;;;;18.39;65.60;100924.75;2091174;28;20094;-78
2022/04/30 04:04:58;;;;;;;7.47;2.75;;;;;;;18.41;65.60;100921.19;2086779;28;20049;-78
2022/04/30 04:06:20;;;;;;;10.27;2.67;;;;;;;18.44;65.48;100918.47;2089615;28;20045;-78
2022/04/30 04:07:43;;;;;;;7.93;2.70;;;;;;;18.47;65.59;100922.88;2092399;28;20138;-78
2022/04/30 04:09:06;;;;;;;7.93;2.67;;;;;;;18.49;65.59;100919.28;2092418;28;20079;-78
2022/04/30 04:10:27;;;;;;;11.02;2.90;;;;;;;18.52;65.49;100913.88;2099830;28;20381;-78
2022/04/30 04:11:51;;;;;;;9.70;2.78;;;;;;;18.56;65.25;100918.34;2086543;28;20045;-79
2022/04/30 04:18:12;;;;;;;8.02;2.83;;;;;;;18.70;64.80;100926.16;2088616;28;20098;-80
2022/04/30 04:19:34;;;;;;;6.93;2.25;;;;;;;18.73;64.74;100923.41;2086234;28;20049;-79
2022/04/30 04:20:56;;;;;;;12.35;2.72;;;;;;;18.76;64.45;100934.09;2092013;28;20049;-78
2022/04/30 04:22:19;;;;;;;7.95;2.60;;;;;;;18.81;64.32;100936.66;2091647;28;20558;-79
2022/04/30 04:27:11;;;;;;;7.03;2.70;;;;;;;18.91;63.84;100938.28;2072082;28;20541;-79
2022/04/30 04:28:33;;;;;;;11.10;2.53;;;;;;;18.91;63.60;100943.63;2092364;28;20048;-79
2022/04/30 04:29:56;;;;;;;8.93;4.65;;;;;;;18.93;63.73;100942.72;2078375;28;20045;-79
2022/04/30 04:31:22;;;;;;;9.50;2.70;;;;;;;18.96;63.47;100942.69;2081727;28;20045;-79
2022/04/30 04:32:44;;;;;;;8.93;3.28;;;;;;;18.99;63.43;100942.63;2086662;28;20044;-79
2022/04/30 04:34:06;;;;;;;7.80;2.83;;;;;;;19.02;63.03;100941.69;2078531;28;20053;-79
2022/04/30 04:35:28;;;;;;;8.73;3.00;;;;;;;19.04;62.95;100948.78;2089612;28;20516;-80
2022/04/30 04:36:51;;;;;;;8.63;2.83;;;;;;;19.08;62.79;100944.28;2086348;28;20180;-79
2022/04/30 04:38:12;;;;;;;13.13;3.50;;;;;;;19.13;62.65;100949.53;2086794;28;20041;-79
2022/04/30 04:39:35;;;;;;;8.63;2.63;;;;;;;19.19;62.62;100941.41;2091320;28;20134;-79
2022/04/30 04:40:57;;;;;;;10.75;2.88;;;;;;;19.24;62.40;100943.09;2090544;28;20045;-79
2022/04/30 04:42:22;;;;;;;9.25;2.55;;;;;;;19.33;62.18;100944.72;2094111;28;20286;-78
2022/04/30 04:43:43;;;;;;;7.95;2.65;;;;;;;19.40;61.95;100954.44;2100336;28;20134;-79
2022/04/30 04:45:07;;;;;;;8.65;4.18;;;;;;;19.51;61.90;100947.09;2105295;28;20420;-79
2022/04/30 04:46:28;;;;;;;8.23;2.50;;;;;;;19.59;61.61;100946.97;2103431;28;20048;-78
2022/04/30 04:47:51;;;;;;;10.52;2.90;;;;;;;19.66;61.24;100943.28;2102699;28;20387;-79
2022/04/30 04:49:13;;;;;;;8.57;2.50;;;;;;;19.72;61.17;100944.03;2093446;28;20499;-79
2022/04/30 04:50:35;;;;;;;;;;;;;;;19.82;61.19;100945.63;2098438;28;20054;-79
2022/04/30 04:51:57;;;;;;;7.47;2.45;;;;;;;20.00;60.85;100951.56;2101871;28;19927;-79
2022/04/30 04:53:20;;;;;;;7.63;2.38;;;;;;;20.19;60.63;100942.22;2095795;28;20448;-79
2022/04/30 04:54:42;;;;;;;10.07;2.90;;;;;;;20.40;60.29;100943.59;2090816;28;20049;-79
2022/04/30 04:56:06;;;;;;;9.45;2.70;;;;;;;20.59;59.82;100940.47;2084110;28;20037;-79
2022/04/30 04:57:30;;;;;;;9.45;2.72;;;;;;;20.81;59.44;100937.25;2086530;28;20055;-80
2022/04/30 04:58:52;;;;;;;11.10;2.55;;;;;;;20.95;58.77;100945.88;2098504;28;20508;-79
2022/04/30 05:00:16;;;;;;;9.52;2.80;;;;;;;21.01;58.29;100949.28;2086156;28;20048;-80
2022/04/30 05:01:39;;;;;;;11.35;3.53;;;;;;;21.00;58.26;100949.34;2094618;28;20052;-80
2022/04/30 05:03:00;;;;;;;13.52;4.10;;;;;;;20.95;57.93;100943.19;2099331;28;20396;-80
2022/04/30 05:04:23;;;;;;;11.60;2.78;;;;;;;20.92;57.65;100951.34;2099103;28;20048;-80
2022/04/30 05:05:46;;;;;;;7.22;2.95;;;;;;;20.90;57.83;100953.16;2099467;28;20052;-80
2022/04/30 05:07:09;;;;;;;11.15;3.20;;;;;;;20.96;57.52;100951.22;2100268;28;20049;-79
2022/04/30 05:08:31;;;;;;;12.23;3.70;;;;;;;21.20;57.27;100957.81;2092143;28;20052;-80
2022/04/30 05:09:54;;;;;;;9.52;2.65;;;;;;;21.53;56.79;100960.59;2090078;28;20063;-80
2022/04/30 05:11:16;;;;;;;9.77;2.47;;;;;;;21.75;56.14;100961.75;2099143;28;20044;-80
2022/04/30 05:12:43;;;;;;;11.07;3.13;;;;;;;21.92;55.29;100953.25;2100887;28;20103;-80
2022/04/30 05:14:06;;;;;;;9.40;2.83;;;;;;;22.04;55.05;100959.19;2102415;28;20415;-80
2022/04/30 05:15:29;;;;;;;8.00;3.53;;;;;;;22.12;54.72;100962.50;2094307;28;20051;-80
2022/04/30 05:16:50;;;;;;;9.90;3.05;;;;;;;22.19;54.65;100960.53;2093805;28;20146;-79
2022/04/30 05:18:13;;;;;;;10.77;3.15;;;;;;;22.42;54.42;100960.75;2091465;28;20118;-79
2022/04/30 05:19:36;;;;;;;7.45;2.67;;;;;;;22.73;53.77;100962.53;2097389;28;20395;-80
2022/04/30 05:20:57;;;;;;;11.07;2.80;;;;;;;22.96;53.25;100960.00;2091553;28;20040;-80
2022/04/30 05:22:20;;;;;;;11.23;3.30;;;;;;;23.18;52.77;100969.13;2094205;28;20106;-80
2022/04/30 05:23:41;;;;;;;9.10;2.75;;;;;;;23.39;52.08;100967.53;2087183;28;20045;-80
2022/04/30 05:25:03;;;;;;;10.60;2.50;;;;;;;23.60;51.82;100969.53;2097522;28;20048;-80
2022/04/30 05:26:26;;;;;;;11.55;2.88;;;;;;;23.66;51.18;100972.00;2089705;28;20037;-80
2022/04/30 05:27:50;;;;;;;7.93;2.38;;;;;;;23.67;50.61;100972.91;2099409;28;20066;-80
2022/04/30 05:29:12;;;;;;;9.75;2.45;;;;;;;23.71;50.10;100986.22;2099694;28;20511;-80
2022/04/30 05:30:35;;;;;;;16.50;2.60;;;;;;;23.77;50.17;100979.72;2094004;28;20044;-80
2022/04/30 05:31:56;;;;;;;16.05;3.13;;;;;;;23.94;49.73;100985.41;2090709;28;20443;-80
2022/04/30 05:33:19;;;;;;;14.05;4.40;;;;;;;24.14;49.52;100985.56;2085003;28;20110;-80
2022/04/30 05:34:42;;;;;;;9.55;2.83;;;;;;;24.38;48.93;100981.09;2099337;28;20061;-81
2022/04/30 05:36:05;;;;;;;9.27;2.35;;;;;;;24.59;48.04;100985.69;2101961;28;20073;-81
2022/04/30 05:37:28;;;;;;;6.90;2.75;;;;;;;24.71;46.82;100980.72;2084144;28;20045;-81
2022/04/30 05:38:51;;;;;;;11.82;3.75;;;;;;;24.78;46.52;100976.84;2093361;28;20036;-81
2022/04/30 05:40:12;;;;;;;11.73;2.67;;;;;;;24.84;46.29;100973.91;2099124;28;20044;-81
2022/04/30 05:41:35;;;;;;;7.65;2.67;;;;;;;24.89;46.33;100975.50;2094236;28;20055;-81
2022/04/30 05:42:58;;;;;;;6.93;2.33;;;;;;;24.95;46.22;100968.97;2083698;28;20079;-80
2022/04/30 05:44:21;;;;;;;12.32;2.83;;;;;;;24.95;46.37;100974.38;2099120;28;20426;-80
2022/04/30 05:45:43;;;;;;;9.07;3.40;;;;;;;25.00;45.73;100975.97;2096858;28;20524;-81
2022/04/30 05:47:06;;;;;;;9.85;3.55;;;;;;;25.05;45.58;100970.38;2080678;28;20136;-81
2022/04/30 05:48:28;;;;;;;15.45;4.53;;;;;;;25.18;45.57;100974.34;2097063;28;20411;-81
2022/04/30 05:49:51;;;;;;;15.95;5.28;;;;;;;25.34;45.38;100971.84;2103337;28;20051;-81
2022/04/30 05:51:14;;;;;;;12.02;3.63;;;;;;;25.48;45.31;100976.69;2100078;28;20059;-81
2022/04/30 05:52:36;;;;;;;10.48;2.85;;;;;;;25.62;45.17;100975.19;2094572;28;20052;-81
2022/04/30 05:53:59;;;;;;;6.90;2.50;;;;;;;25.66;44.96;100973.25;2094304;28;20524;-81
2022/04/30 05:55:22;;;;;;;9.02;2.97;;;;;;;25.88;44.91;100984.88;2089518;28;20101;-81
2022/04/30 05:56:45;;;;;;;10.45;3.00;;;;;;;25.95;44.67;100985.47;2094836;28;20601;-81
2022/04/30 05:58:09;;;;;;;12.57;2.58;;;;;;;25.85;44.11;100997.66;2098661;28;20365;-81
2022/04/30 05:59:32;;;;;;;11.25;2.65;;;;;;;25.84;44.41;101002.19;2103068;28;20048;-81
2022/04/30 06:00:54;;;;;;;10.25;2.13;;;;;;;25.91;44.50;100995.56;2107822;28;20056;-81
2022/04/30 06:02:17;;;;;;;14.60;2.45;;;;;;;25.98;43.95;101007.88;2092532;28;21626;-81
2022/04/30 06:03:39;;;;;;;9.35;2.58;;;;;;;25.67;43.74;101007.44;2086384;28;20105;-80
2022/04/30 06:05:01;;;;;;;11.00;4.10;;;;;;;25.20;44.46;101017.53;2089966;28;20057;-81
2022/04/30 06:06:23;;;;;;;9.38;3.17;;;;;;;24.77;45.19;101015.59;2091154;28;20044;-82
2022/04/30 06:07:45;;;;;;;11.25;3.80;;;;;;;24.62;45.43;101027.88;2091279;28;20049;-81
2022/04/30 06:09:08;;;;;;;11.05;3.45;;;;;;;24.75;45.49;101003.97;2087135;28;20048;-82
2022/04/30 06:10:30;;;;;;;24.42;9.20;;;;;;;25.07;45.08;101009.03;2104029;28;20074;-83
2022/04/30 06:11:51;;;;;;;21.08;5.47;;;;;;;25.23;44.37;101012.84;2096698;28;20500;-83
2022/04/30 06:13:15;;;;;;;13.20;5.18;;;;;;;25.25;44.63;101008.28;2085944;28;20493;-83
2022/04/30 06:14:38;;;;;;;18.95;6.88;;;;;;;25.41;44.76;100993.16;2092080;28;20101;-83
2022/04/30 06:16:01;;;;;;;11.57;3.42;;;;;;;25.56;44.44;101001.56;2087668;28;20538;-83
2022/04/30 06:17:22;;;;;;;10.02;3.13;;;;;;;25.68;44.31;101006.50;2099181;28;20052;-83
2022/04/30 06:18:45;;;;;;;8.38;3.60;;;;;;;25.82;43.84;101003.19;2101728;28;20047;-83
2022/04/30 06:20:09;;;;;;;9.10;3.30;;;;;;;25.85;43.70;100998.53;2092571;28;20527;-82
2022/04/30 06:21:31;;;;;;;16.45;3.90;;;;;;;25.88;43.77;100997.50;2096636;28;20048;-84
2022/04/30 06:22:54;;;;;;;8.05;2.28;;;;;;;26.02;43.65;101000.50;2087396;28;20078;-83
2022/04/30 06:24:16;;;;;;;10.68;2.70;;;;;;;26.16;43.60;100993.53;2093097;28;20040;-83
2022/04/30 06:25:40;;;;;;;15.23;5.15;;;;;;;26.27;43.49;100993.06;2100942;28;20484;-83
2022/04/30 06:27:03;;;;;;;15.55;4.70;;;;;;;26.46;43.72;100993.09;2096039;28;20059;-83
2022/04/30 06:28:26;;;;;;;18.35;9.00;;;;;;;26.60;43.41;100998.75;2085237;28;20102;-83
2022/04/30 06:29:50;;;;;;;32.72;14.32;;;;;;;26.63;43.23;101005.84;2085030;28;20049;-84
2022/04/30 06:31:13;;;;;;;25.73;11.63;;;;;;;26.60;43.09;100998.75;2093810;28;20068;-83
2022/04/30 06:32:37;;;;;;;18.73;7.47;;;;;;;26.67;43.02;101004.75;2090275;28;20064;-83
2022/04/30 06:33:59;;;;;;;18.08;7.22;;;;;;;26.73;42.93;100999.91;2090943;28;20040;-83
2022/04/30 06:35:22;;;;;;;20.67;8.45;;;;;;;26.79;42.59;100996.91;2102083;28;20097;-83
2022/04/30 06:36:44;;;;;;;20.52;8.00;;;;;;;26.84;42.64;101003.03;2103272;28;20109;-84
2022/04/30 06:38:07;;;;;;;12.50;4.20;;;;;;;26.90;42.38;101004.59;2093487;28;20068;-83
2022/04/30 06:39:30;;;;;;;9.80;2.65;;;;;;;26.88;42.24;101004.63;2087560;28;20082;-84
2022/04/30 06:40:53;;;;;;;7.38;2.03;;;;;;;26.91;42.25;101007.19;2086835;28;20408;-81
2022/04/30 06:42:15;;;;;;;7.03;2.05;;;;;;;26.87;41.94;101000.16;2084828;28;20068;-82
2022/04/30 06:43:40;;;;;;;8.02;2.33;;;;;;;26.79;41.97;101005.03;2096109;28;20087;-80
2022/04/30 06:45:02;;;;;;;11.45;2.10;;;;;;;26.82;42.31;101007.63;2104592;28;20056;-81
2022/04/30 06:46:25;;;;;;;10.35;2.25;;;;;;;26.94;42.19;101000.75;2095633;28;20089;-81